Lake City, Pennsylvania
Current Conditions -  °F | °C
As of 7:51 AM on Saturday 25 Oct 2014 (Local Time) from KERI Reporting Station
Broken Clouds Broken Clouds  
Wind Chill: 53°   Ceiling: 4200
Heat Index: 53°   Visibility: 10mi
Dew Point: 43°   Wind: 9mph
Humidity: 69%   Direction: 200°SSW
Pressure: 29.87"   Gusts: NA
Location:  42.01°N, 80.35°W
Report Text: KERI 251151Z 20008KT 10SM BKN042 12/06 A2987 RMK AO2 SLP118 T01170061 10122 20100 58007
Loading
Personal Weather Stations






























Interactive Weather Map
Tropical Storm Tracking
New forecast layout! Learn more

10-Day Weather Forecast

Advertisements
Track Severe Weather on mobile